createdAt,value
2017-09-07T00:00:31.000Z,86.70
2017-09-07T00:02:57.027Z,86.90
2017-09-07T00:05:23.052Z,86.90
2017-09-07T00:07:49.385Z,86.90
2017-09-07T00:10:15.406Z,86.80
2017-09-07T00:12:41.422Z,86.70
2017-09-07T00:15:39.787Z,86.60
2017-09-07T00:18:05.830Z,86.70
2017-09-07T00:20:31.850Z,86.90
2017-09-07T00:22:57.882Z,86.80
2017-09-07T00:25:23.930Z,86.90
2017-09-07T00:27:49.985Z,86.80
2017-09-07T00:30:16.782Z,86.90
2017-09-07T00:32:42.818Z,86.90
2017-09-07T00:35:08.839Z,87.10
2017-09-07T00:37:34.902Z,87.20
2017-09-07T00:40:01.682Z,87.70
2017-09-07T00:42:27.707Z,87.70
2017-09-07T00:44:53.757Z,87.90
2017-09-07T00:47:19.818Z,88.00
2017-09-07T00:49:45.851Z,88.00
2017-09-07T00:52:11.898Z,87.90
2017-09-07T00:54:37.927Z,87.80
2017-09-07T00:57:03.990Z,87.20
2017-09-07T00:59:30.769Z,88.00
2017-09-07T01:01:56.786Z,88.00
2017-09-07T01:04:23.004Z,87.90
2017-09-07T01:06:49.078Z,88.10
2017-09-07T01:09:15.866Z,87.60
2017-09-07T01:11:41.954Z,88.00
2017-09-07T01:14:08.710Z,88.30
2017-09-07T01:16:34.786Z,88.20
2017-09-07T01:19:01.175Z,88.80
2017-09-07T01:21:27.198Z,89.50
2017-09-07T01:23:53.242Z,89.90
2017-09-07T01:26:19.550Z,89.60
2017-09-07T01:28:45.590Z,89.40
2017-09-07T01:31:11.653Z,89.60
2017-09-07T01:33:38.052Z,89.70
2017-09-07T01:36:04.112Z,89.80
2017-09-07T01:38:32.194Z,90.10
2017-09-07T01:40:58.961Z,90.10
2017-09-07T01:43:25.003Z,90.10
2017-09-07T01:45:51.311Z,90.10
2017-09-07T01:51:17.559Z,90.20
2017-09-07T01:53:43.570Z,90.10
2017-09-07T01:56:09.596Z,90.00
2017-09-07T01:58:35.922Z,90.00
2017-09-07T02:01:01.948Z,90.00
2017-09-07T02:03:27.978Z,89.80
2017-09-07T02:05:54.100Z,89.70
2017-09-07T02:08:20.131Z,89.30
2017-09-07T02:10:46.199Z,89.10
2017-09-07T02:13:13.166Z,89.60
2017-09-07T02:15:39.195Z,89.60
2017-09-07T02:18:05.906Z,89.90
2017-09-07T02:20:32.704Z,89.70
2017-09-07T02:22:58.730Z,89.80
2017-09-07T02:25:24.733Z,90.00
2017-09-07T02:27:51.032Z,90.00
2017-09-07T02:30:17.086Z,90.10
2017-09-07T02:32:43.097Z,90.50
2017-09-07T02:35:09.141Z,90.60
2017-09-07T02:37:35.159Z,90.40
2017-09-07T02:40:01.187Z,90.40
2017-09-07T02:42:27.235Z,90.40
2017-09-07T02:44:54.002Z,90.50
2017-09-07T02:47:20.031Z,90.50
2017-09-07T02:49:46.058Z,90.70
2017-09-07T02:52:12.094Z,90.70
2017-09-07T02:54:38.158Z,90.80
2017-09-07T02:57:04.920Z,90.70
2017-09-07T02:59:30.947Z,90.60
2017-09-07T03:01:57.287Z,90.70
2017-09-07T03:04:23.369Z,90.50
2017-09-07T03:06:50.174Z,90.80
2017-09-07T03:09:16.218Z,90.80
2017-09-07T03:11:42.225Z,90.90
2017-09-07T03:14:08.236Z,91.00
2017-09-07T03:16:34.362Z,90.80
2017-09-07T03:19:00.378Z,90.70
2017-09-07T03:21:26.434Z,90.70
2017-09-07T03:23:53.221Z,91.00
2017-09-07T03:26:19.246Z,90.80
2017-09-07T03:28:45.262Z,90.60
2017-09-07T03:31:11.327Z,90.70
2017-09-07T03:33:37.353Z,90.60
2017-09-07T03:36:04.128Z,90.80
2017-09-07T03:38:30.574Z,90.70
2017-09-07T03:40:56.867Z,90.80
2017-09-07T03:43:23.634Z,91.00
2017-09-07T03:45:49.855Z,91.00
2017-09-07T03:48:15.890Z,90.70
2017-09-07T03:50:41.934Z,90.80
2017-09-07T03:53:08.035Z,90.90
2017-09-07T03:55:34.066Z,90.80
2017-09-07T03:58:00.083Z,90.70
2017-09-07T04:00:26.165Z,90.60
2017-09-07T04:02:52.911Z,90.80
2017-09-07T04:05:19.664Z,90.90
2017-09-07T04:07:45.905Z,90.80
2017-09-07T04:10:11.953Z,91.00
2017-09-07T04:12:37.967Z,91.00
2017-09-07T04:15:04.057Z,91.30
2017-09-07T04:17:30.079Z,91.10
2017-09-07T04:19:56.110Z,91.20
2017-09-07T04:22:22.655Z,91.10
2017-09-07T04:24:48.671Z,91.00
2017-09-07T04:27:14.698Z,91.10
2017-09-07T04:29:40.712Z,91.20
2017-09-07T04:32:06.738Z,91.10
2017-09-07T04:34:32.797Z,91.00
2017-09-07T04:36:58.841Z,90.80
2017-09-07T04:39:25.618Z,90.70
2017-09-07T04:41:51.826Z,90.60
2017-09-07T04:44:17.850Z,90.70
2017-09-07T04:46:43.874Z,90.70
2017-09-07T04:49:09.943Z,90.80
2017-09-07T04:51:36.004Z,90.80
2017-09-07T04:54:02.050Z,91.00
2017-09-07T04:56:28.201Z,91.00
2017-09-07T04:58:54.242Z,91.00
2017-09-07T05:01:21.031Z,90.80
2017-09-07T05:03:47.243Z,90.70
2017-09-07T05:06:13.270Z,90.90
2017-09-07T05:08:39.294Z,90.80
2017-09-07T05:11:05.618Z,90.80
2017-09-07T05:13:31.647Z,91.10
2017-09-07T05:15:57.696Z,91.00
2017-09-07T05:18:23.745Z,91.20
2017-09-07T05:20:50.512Z,91.20
2017-09-07T05:23:16.586Z,91.20
2017-09-07T05:25:42.628Z,91.00
2017-09-07T05:28:09.381Z,91.30
2017-09-07T05:30:36.452Z,90.90
2017-09-07T05:33:02.520Z,90.90
2017-09-07T05:35:28.701Z,90.70
2017-09-07T05:37:54.773Z,90.80
2017-09-07T05:40:20.803Z,91.00
2017-09-07T05:42:47.565Z,91.00
2017-09-07T05:45:14.635Z,90.90
2017-09-07T05:47:40.652Z,90.90
2017-09-07T05:50:06.680Z,90.80
2017-09-07T05:52:32.736Z,91.00
2017-09-07T05:54:58.784Z,90.70
2017-09-07T05:57:25.595Z,90.80
2017-09-07T05:59:51.705Z,90.80
2017-09-07T06:02:17.761Z,90.80
2017-09-07T06:04:43.785Z,90.80
2017-09-07T06:07:10.579Z,91.10
2017-09-07T06:09:36.601Z,91.10
2017-09-07T06:12:02.643Z,90.80
2017-09-07T06:14:28.705Z,90.90
2017-09-07T06:16:54.829Z,91.20
2017-09-07T06:19:21.586Z,90.80
2017-09-07T06:21:47.658Z,90.80
2017-09-07T06:24:13.662Z,90.80
2017-09-07T06:26:39.692Z,90.60
2017-09-07T06:29:05.768Z,90.70
2017-09-07T06:31:31.794Z,90.60
2017-09-07T06:33:57.829Z,90.60
2017-09-07T06:36:23.915Z,90.80
2017-09-07T06:38:50.820Z,90.70
2017-09-07T06:41:16.878Z,90.70
2017-09-07T06:43:43.951Z,90.40
2017-09-07T06:46:09.999Z,90.40
2017-09-07T06:48:36.432Z,90.40
2017-09-07T06:51:02.834Z,90.50
2017-09-07T06:53:28.883Z,90.60
2017-09-07T06:55:55.727Z,90.30
2017-09-07T06:58:21.781Z,90.30
2017-09-07T07:00:47.830Z,90.20
2017-09-07T07:03:13.907Z,90.10
2017-09-07T07:05:40.290Z,90.00
2017-09-07T07:08:06.311Z,89.60
2017-09-07T07:10:32.348Z,90.00
2017-09-07T07:12:58.573Z,89.00
2017-09-07T07:15:25.288Z,89.80
2017-09-07T07:17:51.376Z,89.30
2017-09-07T07:20:17.652Z,89.00
2017-09-07T07:22:43.685Z,88.90
2017-09-07T07:25:09.722Z,89.00
2017-09-07T07:27:35.781Z,89.30
2017-09-07T07:30:02.858Z,89.40
2017-09-07T07:32:30.493Z,89.40
2017-09-07T07:34:57.577Z,89.10
2017-09-07T07:37:24.199Z,89.80
2017-09-07T07:39:50.210Z,88.70
2017-09-07T07:42:16.329Z,88.90
2017-09-07T07:44:43.162Z,89.20
2017-09-07T07:47:09.923Z,89.60
2017-09-07T07:49:35.951Z,89.50
2017-09-07T07:52:01.998Z,89.60
2017-09-07T07:54:28.036Z,90.10
2017-09-07T07:56:54.065Z,90.60
2017-09-07T07:59:21.146Z,90.60
2017-09-07T08:01:48.232Z,90.80
2017-09-07T08:04:14.537Z,90.80
2017-09-07T08:06:40.570Z,90.90
2017-09-07T08:09:06.842Z,90.90
2017-09-07T08:11:33.594Z,91.00
2017-09-07T08:14:00.739Z,91.00
2017-09-07T08:16:27.535Z,91.10
2017-09-07T08:18:53.762Z,91.10
2017-09-07T08:21:19.785Z,90.90
2017-09-07T08:23:45.814Z,91.20
2017-09-07T08:26:11.874Z,91.50
2017-09-07T08:28:40.540Z,91.60
2017-09-07T08:31:06.624Z,91.60
2017-09-07T08:33:32.678Z,91.80
2017-09-07T08:35:58.719Z,91.50
2017-09-07T08:38:25.490Z,91.30
2017-09-07T08:40:51.542Z,91.20
2017-09-07T08:43:17.934Z,91.40
2017-09-07T08:45:43.942Z,91.50
2017-09-07T08:48:09.992Z,91.60
2017-09-07T08:50:36.218Z,91.70
2017-09-07T08:53:02.255Z,91.80
2017-09-07T08:55:29.351Z,91.80
2017-09-07T08:57:56.126Z,91.70
2017-09-07T09:00:22.178Z,91.70
2017-09-07T09:02:48.235Z,91.80
2017-09-07T09:05:14.276Z,92.00
2017-09-07T09:07:40.310Z,92.00
2017-09-07T09:10:06.319Z,92.10
2017-09-07T09:12:34.526Z,92.10
2017-09-07T09:15:00.605Z,92.20
2017-09-07T09:17:26.645Z,92.20
2017-09-07T09:19:52.662Z,91.50
2017-09-07T09:22:18.679Z,92.00
2017-09-07T09:24:44.908Z,92.50
2017-09-07T09:27:10.927Z,92.70
2017-09-07T09:29:36.956Z,92.70
2017-09-07T09:32:03.025Z,92.70
2017-09-07T09:34:29.059Z,92.40
2017-09-07T09:36:55.814Z,91.00
2017-09-07T09:39:22.591Z,91.20
2017-09-07T09:41:48.610Z,91.20
2017-09-07T09:44:14.620Z,91.10
2017-09-07T09:46:41.474Z,91.20
2017-09-07T09:49:08.389Z,91.40
2017-09-07T09:51:34.415Z,91.40
2017-09-07T09:54:00.590Z,91.50
2017-09-07T09:56:26.650Z,91.20
2017-09-07T09:58:52.665Z,91.30
2017-09-07T10:01:19.458Z,91.40
2017-09-07T10:03:45.877Z,91.70
2017-09-07T10:06:11.922Z,91.30
2017-09-07T10:08:37.956Z,91.30
2017-09-07T10:11:04.868Z,91.10
2017-09-07T10:13:30.878Z,91.10
2017-09-07T10:15:56.963Z,90.90
2017-09-07T10:18:23.022Z,90.80
2017-09-07T10:20:49.042Z,90.60
2017-09-07T10:23:15.100Z,90.30
2017-09-07T10:25:41.134Z,90.20
2017-09-07T10:28:07.934Z,90.10
2017-09-07T10:30:34.035Z,90.10
2017-09-07T10:33:00.076Z,90.30
2017-09-07T10:35:26.122Z,90.90
2017-09-07T10:37:52.174Z,91.40
2017-09-07T10:40:18.944Z,91.40
2017-09-07T10:42:44.994Z,91.40
2017-09-07T10:45:11.026Z,91.80
2017-09-07T10:47:37.042Z,90.70
2017-09-07T10:50:03.075Z,88.90
2017-09-07T10:52:29.210Z,87.60
2017-09-07T10:54:57.203Z,87.70
2017-09-07T10:57:25.658Z,87.70
2017-09-07T10:59:53.402Z,86.70
2017-09-07T11:02:22.187Z,86.70
2017-09-07T11:04:48.599Z,86.80
2017-09-07T11:07:16.565Z,86.60
2017-09-07T11:09:42.937Z,86.70
2017-09-07T11:12:09.986Z,86.60
2017-09-07T11:14:36.050Z,86.60
2017-09-07T11:17:02.126Z,87.90
2017-09-07T11:19:29.772Z,86.00
2017-09-07T11:21:55.798Z,86.00
2017-09-07T11:24:22.582Z,87.30
2017-09-07T11:26:48.911Z,86.60
2017-09-07T11:29:15.014Z,85.40
2017-09-07T11:31:41.084Z,85.20
2017-09-07T11:34:07.256Z,86.10
2017-09-07T11:36:33.327Z,85.80
2017-09-07T11:38:59.389Z,84.30
2017-09-07T11:41:26.363Z,83.30
2017-09-07T11:43:52.403Z,83.20
2017-09-07T11:46:18.439Z,83.50
2017-09-07T11:48:44.549Z,83.60
2017-09-07T11:51:10.863Z,83.60
2017-09-07T11:53:36.891Z,83.00
2017-09-07T11:56:03.204Z,83.40
2017-09-07T11:58:29.341Z,84.00
2017-09-07T12:00:56.126Z,82.50
2017-09-07T12:03:22.205Z,79.90
2017-09-07T12:05:48.342Z,79.50
2017-09-07T12:08:15.200Z,77.10
2017-09-07T12:10:41.394Z,78.00
2017-09-07T12:13:07.504Z,78.10
2017-09-07T12:15:33.559Z,77.60
2017-09-07T12:18:00.349Z,79.60
2017-09-07T12:20:26.403Z,79.60
2017-09-07T12:22:52.482Z,77.50
2017-09-07T12:25:18.531Z,77.40
2017-09-07T12:27:44.586Z,76.50
2017-09-07T12:30:10.649Z,75.30
2017-09-07T12:32:37.424Z,75.00
2017-09-07T12:35:03.474Z,74.90
2017-09-07T12:37:29.583Z,76.00
2017-09-07T12:39:56.280Z,74.40
2017-09-07T12:42:23.109Z,75.60
2017-09-07T12:44:50.298Z,74.90
2017-09-07T12:47:16.376Z,74.80
2017-09-07T12:49:43.149Z,76.00
2017-09-07T12:52:09.813Z,75.90
2017-09-07T12:54:35.894Z,76.00
2017-09-07T12:57:01.958Z,77.10
2017-09-07T12:59:28.015Z,77.10
2017-09-07T13:01:54.883Z,77.50
2017-09-07T13:04:20.921Z,77.50
2017-09-07T13:06:47.010Z,77.80
2017-09-07T13:09:13.838Z,78.50
2017-09-07T13:11:39.858Z,78.40
2017-09-07T13:14:05.921Z,78.00
2017-09-07T13:16:32.607Z,78.00
2017-09-07T13:18:58.667Z,77.70
2017-09-07T13:21:24.726Z,76.90
2017-09-07T13:23:50.821Z,76.40
2017-09-07T13:26:19.412Z,76.80
2017-09-07T13:28:45.486Z,77.70
2017-09-07T13:31:11.527Z,77.20
2017-09-07T13:33:44.271Z,77.10
2017-09-07T13:36:10.302Z,77.10
2017-09-07T13:38:36.340Z,76.50
2017-09-07T13:41:04.039Z,76.40
2017-09-07T13:43:30.052Z,76.40
2017-09-07T13:45:56.059Z,76.90
2017-09-07T13:48:22.916Z,77.60
2017-09-07T13:50:52.168Z,77.60
2017-09-07T13:53:18.231Z,78.10
2017-09-07T13:55:44.259Z,77.80
2017-09-07T13:58:10.286Z,78.20
2017-09-07T14:00:37.221Z,78.20
2017-09-07T14:03:03.614Z,78.90
2017-09-07T14:05:30.376Z,79.00
2017-09-07T14:07:57.170Z,78.70
2017-09-07T14:10:23.240Z,78.60
2017-09-07T14:12:49.251Z,78.70
2017-09-07T14:15:16.182Z,78.00
2017-09-07T14:17:42.972Z,77.80
2017-09-07T14:20:09.007Z,77.80
2017-09-07T14:22:35.043Z,77.00
2017-09-07T14:25:01.110Z,76.70
2017-09-07T14:27:27.452Z,77.30
2017-09-07T14:29:53.479Z,77.30
2017-09-07T14:32:19.527Z,78.00
2017-09-07T14:34:45.930Z,78.00
2017-09-07T14:37:11.952Z,77.60
2017-09-07T14:39:38.018Z,78.00
2017-09-07T14:42:04.070Z,76.50
2017-09-07T14:44:30.111Z,77.00
2017-09-07T14:46:56.645Z,77.90
2017-09-07T14:49:22.676Z,79.40
2017-09-07T14:51:48.694Z,80.20
2017-09-07T14:54:15.032Z,81.10
2017-09-07T14:56:41.091Z,82.00
2017-09-07T14:59:07.912Z,83.50
2017-09-07T15:01:34.431Z,83.10
2017-09-07T15:04:00.446Z,83.40
2017-09-07T15:06:26.483Z,83.60
2017-09-07T15:08:52.550Z,84.00
2017-09-07T15:11:18.624Z,84.30
2017-09-07T15:13:44.711Z,84.90
2017-09-07T15:16:10.747Z,85.10
2017-09-07T15:18:36.770Z,85.20
2017-09-07T15:21:02.826Z,85.50
2017-09-07T15:23:28.851Z,84.70
2017-09-07T15:25:54.874Z,85.00
2017-09-07T15:28:20.962Z,84.60
2017-09-07T15:30:46.986Z,84.80
2017-09-07T15:33:13.039Z,84.80
2017-09-07T15:35:39.439Z,84.70
2017-09-07T15:38:05.470Z,84.40
2017-09-07T15:40:31.497Z,84.70
2017-09-07T15:42:57.514Z,84.00
2017-09-07T15:45:23.530Z,84.20
2017-09-07T15:47:49.601Z,84.20
2017-09-07T15:50:16.590Z,82.30
2017-09-07T15:52:42.612Z,82.30
2017-09-07T15:55:08.648Z,82.90
2017-09-07T15:57:34.690Z,82.70
2017-09-07T16:00:00.745Z,82.10
2017-09-07T16:02:27.517Z,81.60
2017-09-07T16:04:53.599Z,81.60
2017-09-07T16:07:20.399Z,81.80
2017-09-07T16:09:46.446Z,81.80
2017-09-07T16:12:13.540Z,81.30
2017-09-07T16:14:39.566Z,81.30
2017-09-07T16:17:05.602Z,80.60
2017-09-07T16:19:31.623Z,80.60
2017-09-07T16:21:57.702Z,79.90
2017-09-07T16:24:23.734Z,80.60
2017-09-07T16:26:49.782Z,79.90
2017-09-07T16:29:15.839Z,79.40
2017-09-07T16:31:41.876Z,79.90
2017-09-07T16:34:08.646Z,79.20
2017-09-07T16:36:34.723Z,79.00
2017-09-07T16:39:00.791Z,78.90
2017-09-07T16:41:26.831Z,78.90
2017-09-07T16:43:52.933Z,78.60
2017-09-07T16:46:18.963Z,78.50
2017-09-07T16:48:44.987Z,78.20
2017-09-07T16:51:11.037Z,78.60
2017-09-07T16:53:37.054Z,78.50
2017-09-07T16:56:03.083Z,78.80
2017-09-07T16:58:29.372Z,78.30
2017-09-07T17:00:55.410Z,77.80
2017-09-07T17:03:21.423Z,77.80
2017-09-07T17:05:47.463Z,77.60
2017-09-07T17:08:13.506Z,78.00
2017-09-07T17:10:39.559Z,77.40
2017-09-07T17:13:05.630Z,77.70
2017-09-07T17:15:31.670Z,77.40
2017-09-07T17:17:57.685Z,77.90
2017-09-07T17:20:23.754Z,78.20
2017-09-07T17:22:49.788Z,77.70
2017-09-07T17:25:15.826Z,77.10
2017-09-07T17:27:41.887Z,76.70
2017-09-07T17:30:07.942Z,76.40
2017-09-07T17:32:33.976Z,76.30
2017-09-07T17:35:00.018Z,76.20
2017-09-07T17:37:26.041Z,76.50
2017-09-07T17:39:52.110Z,76.40
2017-09-07T17:42:18.922Z,77.60
2017-09-07T17:44:44.950Z,77.60
2017-09-07T17:47:10.970Z,76.40
2017-09-07T17:49:37.027Z,77.80
2017-09-07T17:52:03.807Z,75.70
2017-09-07T17:54:29.832Z,75.80
2017-09-07T17:56:55.881Z,75.90
2017-09-07T17:59:21.952Z,76.70
2017-09-07T18:01:47.995Z,78.00
2017-09-07T18:04:14.058Z,78.10
2017-09-07T18:06:40.830Z,79.10
2017-09-07T18:09:06.915Z,78.40
2017-09-07T18:11:33.751Z,79.80
2017-09-07T18:13:59.777Z,79.00
2017-09-07T18:16:25.810Z,79.30
2017-09-07T18:18:52.615Z,78.20
2017-09-07T18:21:18.634Z,78.20
2017-09-07T18:23:44.707Z,78.70
2017-09-07T18:26:10.761Z,78.30
2017-09-07T18:28:36.830Z,78.50
2017-09-07T18:31:03.654Z,77.00
2017-09-07T18:33:29.695Z,77.10
2017-09-07T18:35:56.474Z,77.90
2017-09-07T18:38:22.535Z,77.10
2017-09-07T18:40:48.715Z,77.80
2017-09-07T18:43:14.740Z,77.40
2017-09-07T18:45:40.758Z,77.40
2017-09-07T18:48:07.047Z,78.90
2017-09-07T18:50:33.822Z,79.70
2017-09-07T18:52:59.847Z,79.70
2017-09-07T18:55:25.899Z,79.10
2017-09-07T18:57:51.971Z,79.80
2017-09-07T19:00:18.023Z,79.20
2017-09-07T19:02:44.212Z,79.90
2017-09-07T19:05:10.983Z,80.90
2017-09-07T19:07:37.049Z,80.90
2017-09-07T19:10:03.469Z,80.40
2017-09-07T19:12:29.507Z,80.80
2017-09-07T19:14:55.575Z,81.40
2017-09-07T19:17:21.616Z,82.00
2017-09-07T19:19:47.678Z,82.80
2017-09-07T19:22:14.755Z,82.90
2017-09-07T19:24:40.856Z,82.90
2017-09-07T19:27:07.076Z,83.30
2017-09-07T19:29:33.884Z,85.10
2017-09-07T19:31:59.995Z,84.40
2017-09-07T19:34:26.075Z,84.50
2017-09-07T19:36:52.488Z,84.90
2017-09-07T19:39:19.325Z,84.90
2017-09-07T19:41:46.408Z,84.50
2017-09-07T19:44:12.463Z,84.50
2017-09-07T19:46:38.627Z,84.60
2017-09-07T19:49:07.046Z,84.50
2017-09-07T19:51:33.284Z,84.50
2017-09-07T19:53:59.323Z,84.70
2017-09-07T19:56:25.714Z,85.00
2017-09-07T19:58:51.733Z,85.10
2017-09-07T20:01:17.875Z,85.60
2017-09-07T20:03:43.954Z,85.70
2017-09-07T20:06:10.765Z,85.70
2017-09-07T20:08:36.820Z,85.70
2017-09-07T20:11:03.902Z,85.60
2017-09-07T20:13:30.177Z,85.60
2017-09-07T20:15:56.965Z,85.70
2017-09-07T20:18:23.035Z,85.70
2017-09-07T20:20:49.234Z,85.70
2017-09-07T20:23:15.283Z,85.40
2017-09-07T20:25:42.089Z,85.60
2017-09-07T20:28:08.115Z,85.50
2017-09-07T20:30:34.196Z,85.60
2017-09-07T20:33:00.255Z,85.10
2017-09-07T20:35:26.307Z,85.00
2017-09-07T20:37:52.354Z,84.70
2017-09-07T20:40:18.454Z,83.80
2017-09-07T20:42:44.522Z,83.50
2017-09-07T20:45:10.568Z,83.40
2017-09-07T20:47:36.623Z,83.20
2017-09-07T20:50:03.440Z,83.70
2017-09-07T20:52:29.460Z,83.60
2017-09-07T20:54:55.757Z,82.90
2017-09-07T20:57:21.813Z,83.50
2017-09-07T20:59:47.854Z,83.60
2017-09-07T21:02:14.235Z,83.60
2017-09-07T21:04:40.259Z,83.80
2017-09-07T21:07:06.329Z,83.90
2017-09-07T21:09:33.140Z,84.40
2017-09-07T21:11:59.177Z,84.30
2017-09-07T21:14:25.202Z,84.60
2017-09-07T21:16:51.235Z,84.60
2017-09-07T21:19:18.028Z,84.50
2017-09-07T21:21:44.062Z,84.50
2017-09-07T21:24:10.102Z,83.90
2017-09-07T21:26:36.143Z,84.10
2017-09-07T21:29:02.957Z,83.80
2017-09-07T21:31:29.031Z,83.80
2017-09-07T21:33:55.050Z,83.70
2017-09-07T21:36:21.846Z,83.40
2017-09-07T21:38:47.897Z,83.30
2017-09-07T21:41:14.654Z,83.30
2017-09-07T21:43:40.730Z,83.40
2017-09-07T21:46:06.782Z,83.40
2017-09-07T21:48:32.928Z,83.20
2017-09-07T21:50:59.010Z,83.50
2017-09-07T21:53:25.042Z,82.90
2017-09-07T21:55:51.807Z,82.20
2017-09-07T21:58:17.900Z,82.20
2017-09-07T22:00:44.663Z,82.40
2017-09-07T22:03:10.694Z,82.40
2017-09-07T22:05:36.744Z,82.60
2017-09-07T22:08:02.783Z,82.60
2017-09-07T22:10:28.807Z,82.90
2017-09-07T22:12:55.826Z,83.60
2017-09-07T22:15:21.861Z,83.10
2017-09-07T22:17:47.902Z,82.90
2017-09-07T22:20:14.695Z,82.70
2017-09-07T22:22:40.833Z,82.70
2017-09-07T22:25:06.918Z,82.70
2017-09-07T22:27:32.946Z,82.10
2017-09-07T22:29:58.992Z,82.30
2017-09-07T22:32:25.044Z,82.00
2017-09-07T22:34:51.083Z,80.90
2017-09-07T22:37:17.115Z,81.20
2017-09-07T22:39:45.431Z,81.70
2017-09-07T22:42:11.454Z,81.70
2017-09-07T22:44:37.499Z,80.80
2017-09-07T22:47:04.627Z,81.60
2017-09-07T22:49:30.680Z,81.30
2017-09-07T22:51:56.706Z,81.50
2017-09-07T22:54:23.522Z,81.70
2017-09-07T22:56:49.598Z,81.70
2017-09-07T22:59:16.366Z,81.90
2017-09-07T23:01:42.412Z,81.90
2017-09-07T23:04:08.482Z,82.10
2017-09-07T23:06:34.526Z,82.40
2017-09-07T23:09:00.574Z,82.60
2017-09-07T23:11:26.610Z,82.60
2017-09-07T23:13:52.650Z,82.80
2017-09-07T23:16:19.494Z,83.20
2017-09-07T23:18:45.568Z,83.90
2017-09-07T23:21:11.613Z,83.20
2017-09-07T23:23:38.019Z,83.10
2017-09-07T23:26:04.046Z,83.00
2017-09-07T23:28:30.085Z,83.00
2017-09-07T23:30:56.138Z,83.10
2017-09-07T23:33:22.919Z,82.80
2017-09-07T23:35:48.958Z,82.80
2017-09-07T23:38:15.051Z,83.00
2017-09-07T23:40:41.063Z,83.10
2017-09-07T23:43:07.086Z,83.30
2017-09-07T23:45:33.322Z,82.30
2017-09-07T23:47:59.351Z,82.50
2017-09-07T23:50:25.394Z,83.10
2017-09-07T23:52:51.470Z,83.50
2017-09-07T23:55:18.225Z,83.70
2017-09-07T23:57:44.254Z,83.70
